Tavistock, Canada
Current Conditions -  °F | °C
As of 5:00 PM on Tuesday 21 Oct 2014 (Local Time) from CYKF Reporting Station
Overcast Overcast  
Wind Chill: 38°   Ceiling: 1000
Heat Index: 45°   Visibility: 9mi
Dew Point: 41°   Wind: 13mph
Humidity: 87%   Direction: 10°N
Pressure: 30.01"   Gusts: 23mph
Location:  43.32°N, 80.83°W
Report Text: CYKF 212100Z AUTO 01011G20KT 9SM OVC010 07/05 A3001 RMK SLP167
Loading
Personal Weather Stations






























Interactive Weather Map
Tropical Storm Tracking
New forecast layout! Learn more

10-Day Weather Forecast

Advertisements
Track Severe Weather on mobile